createdAt,value
2022-09-26T00:00:33.706Z,92.00
2022-09-26T00:05:37.050Z,92.41
2022-09-26T00:10:38.691Z,93.23
2022-09-26T00:15:40.346Z,93.66
2022-09-26T00:20:41.988Z,93.74
2022-09-26T00:25:50.939Z,93.40
2022-09-26T00:30:53.077Z,93.34
2022-09-26T00:35:55.811Z,93.05
2022-09-26T00:40:57.964Z,93.50
2022-09-26T00:46:05.094Z,93.80
2022-09-26T00:51:07.670Z,94.01
2022-09-26T00:56:15.991Z,94.33
2022-09-26T01:01:18.812Z,94.53
2022-09-26T01:06:21.451Z,94.56
2022-09-26T01:11:23.812Z,94.11
2022-09-26T01:16:25.657Z,94.25
2022-09-26T01:21:37.651Z,94.37
2022-09-26T01:27:07.722Z,94.54
2022-09-26T01:32:48.721Z,94.39
2022-09-26T01:38:09.393Z,94.37
2022-09-26T01:43:34.159Z,94.80
2022-09-26T01:48:44.407Z,94.62
2022-09-26T01:53:53.175Z,94.40
2022-09-26T01:58:56.861Z,94.34
2022-09-26T02:04:06.106Z,94.33
2022-09-26T02:09:12.705Z,93.95
2022-09-26T02:14:25.617Z,94.27
2022-09-26T02:20:02.367Z,94.52
2022-09-26T02:25:05.902Z,95.07
2022-09-26T02:30:08.602Z,95.04
2022-09-26T02:35:34.612Z,94.96
2022-09-26T02:41:02.977Z,94.93
2022-09-26T02:46:30.186Z,95.06
2022-09-26T02:52:08.861Z,95.09
2022-09-26T02:57:39.948Z,94.99
2022-09-26T03:02:50.950Z,95.15
2022-09-26T03:08:05.448Z,95.03
2022-09-26T03:13:13.247Z,95.37
2022-09-26T03:18:20.593Z,95.17
2022-09-26T03:23:26.972Z,95.28
2022-09-26T03:28:37.872Z,95.30
2022-09-26T03:33:40.879Z,95.48
2022-09-26T03:38:42.506Z,95.35
2022-09-26T03:43:58.982Z,95.27
2022-09-26T03:49:13.289Z,95.48
2022-09-26T03:54:15.598Z,95.62
2022-09-26T03:59:17.492Z,95.78
2022-09-26T04:04:20.603Z,95.73
2022-09-26T04:09:23.556Z,95.38
2022-09-26T04:14:26.578Z,95.67
2022-09-26T04:19:31.811Z,95.29
2022-09-26T04:24:35.565Z,95.33
2022-09-26T04:29:37.402Z,96.21
2022-09-26T04:35:02.177Z,97.49
2022-09-26T04:40:04.634Z,98.27
2022-09-26T04:45:09.001Z,99.07
2022-09-26T04:50:10.786Z,99.63
2022-09-26T04:55:13.114Z,98.62
2022-09-26T05:00:15.857Z,98.85
2022-09-26T05:05:17.677Z,99.19
2022-09-26T05:10:19.508Z,99.03
2022-09-26T05:15:29.060Z,99.14
2022-09-26T05:20:31.767Z,99.08
2022-09-26T05:25:59.253Z,98.75
2022-09-26T05:31:01.445Z,97.83
2022-09-26T05:36:05.587Z,97.89
2022-09-26T05:41:07.520Z,97.91
2022-09-26T05:46:11.191Z,98.26
2022-09-26T05:51:21.090Z,98.14
2022-09-26T05:56:23.547Z,98.10
2022-09-26T06:01:38.688Z,98.27
2022-09-26T06:06:52.981Z,97.79
2022-09-26T06:11:54.706Z,97.13
2022-09-26T06:16:56.550Z,96.64
2022-09-26T06:21:58.178Z,96.20
2022-09-26T06:27:00.059Z,96.53
2022-09-26T06:32:01.826Z,96.49
2022-09-26T06:37:32.490Z,96.17
2022-09-26T06:42:38.077Z,96.20
2022-09-26T06:47:54.655Z,96.18
2022-09-26T06:53:10.500Z,95.78
2022-09-26T06:58:12.298Z,95.40
2022-09-26T07:03:29.552Z,95.31
2022-09-26T07:14:41.919Z,94.47
2022-09-26T07:19:53.651Z,93.85
2022-09-26T07:25:21.721Z,93.27
2022-09-26T07:30:23.877Z,93.30
2022-09-26T07:35:44.398Z,93.24
2022-09-26T07:40:46.308Z,92.69
2022-09-26T07:46:09.694Z,91.75
2022-09-26T07:51:12.558Z,91.74
2022-09-26T07:56:23.556Z,90.70
2022-09-26T08:01:38.188Z,91.22
2022-09-26T08:07:06.057Z,90.63
2022-09-26T08:12:14.432Z,88.72
2022-09-26T08:17:34.950Z,88.48
2022-09-26T08:22:37.859Z,88.30
2022-09-26T08:27:43.620Z,87.72
2022-09-26T08:32:54.066Z,84.92
2022-09-26T08:38:00.879Z,84.21
2022-09-26T08:43:42.941Z,82.12
2022-09-26T08:49:39.510Z,82.43
2022-09-26T08:54:44.487Z,81.91
2022-09-26T08:59:47.089Z,81.41
2022-09-26T09:05:10.292Z,80.02
2022-09-26T09:10:22.689Z,77.15
2022-09-26T09:15:46.287Z,77.07
2022-09-26T09:21:13.368Z,77.52
2022-09-26T09:32:31.163Z,74.86
2022-09-26T09:37:52.017Z,74.03
2022-09-26T09:43:13.449Z,72.98
2022-09-26T09:48:15.525Z,72.87
2022-09-26T09:53:32.304Z,71.92
2022-09-26T09:59:04.312Z,71.80
2022-09-26T10:04:37.428Z,70.57
2022-09-26T10:09:41.407Z,67.30
2022-09-26T10:15:07.542Z,67.99
2022-09-26T10:20:39.072Z,68.73
2022-09-26T10:25:48.239Z,69.51
2022-09-26T10:31:01.449Z,69.47
2022-09-26T10:36:31.345Z,68.68
2022-09-26T10:41:39.081Z,67.83
2022-09-26T10:46:45.295Z,68.35
2022-09-26T10:52:18.693Z,68.57
2022-09-26T10:57:33.621Z,69.04
2022-09-26T11:02:38.134Z,69.36
2022-09-26T11:07:43.853Z,67.32
2022-09-26T11:13:18.797Z,67.02
2022-09-26T11:18:33.181Z,67.08
2022-09-26T11:23:39.033Z,68.09
2022-09-26T11:29:08.862Z,66.51
2022-09-26T11:34:28.831Z,66.67
2022-09-26T11:39:59.135Z,66.04
2022-09-26T11:45:09.157Z,66.38
2022-09-26T11:50:51.513Z,65.74
2022-09-26T11:56:19.887Z,65.15
2022-09-26T12:01:55.823Z,66.11
2022-09-26T12:07:08.424Z,65.38
2022-09-26T12:12:41.404Z,64.85
2022-09-26T12:18:04.115Z,66.04
2022-09-26T12:23:46.016Z,65.40
2022-09-26T12:29:06.021Z,66.65
2022-09-26T12:34:18.981Z,66.56
2022-09-26T12:39:41.690Z,65.42
2022-09-26T12:45:02.508Z,64.53
2022-09-26T12:50:30.785Z,63.52
2022-09-26T12:55:56.971Z,61.63
2022-09-26T13:01:29.772Z,62.22
2022-09-26T13:07:18.879Z,63.35
2022-09-26T13:12:47.752Z,62.65
2022-09-26T13:17:57.843Z,61.80
2022-09-26T13:23:18.119Z,61.90
2022-09-26T13:28:24.089Z,61.84
2022-09-26T13:33:28.686Z,62.28
2022-09-26T13:38:53.165Z,62.44
2022-09-26T13:44:06.765Z,62.87
2022-09-26T13:49:33.800Z,63.32
2022-09-26T13:54:54.126Z,65.00
2022-09-26T13:59:55.772Z,65.08
2022-09-26T14:05:03.592Z,64.80
2022-09-26T14:10:17.941Z,63.61
2022-09-26T14:15:48.074Z,63.37
2022-09-26T14:21:05.478Z,62.79
2022-09-26T14:26:21.573Z,60.89
2022-09-26T14:31:26.286Z,59.88
2022-09-26T14:36:32.478Z,60.97
2022-09-26T14:41:36.430Z,59.86
2022-09-26T14:46:41.336Z,59.67
2022-09-26T14:51:48.982Z,58.99
2022-09-26T14:57:02.151Z,59.20
2022-09-26T15:02:26.026Z,57.74
2022-09-26T15:07:33.737Z,57.81
2022-09-26T15:12:48.019Z,57.56
2022-09-26T15:17:55.822Z,56.77
2022-09-26T15:22:58.867Z,57.74
2022-09-26T15:28:01.506Z,57.31
2022-09-26T15:33:04.194Z,57.08
2022-09-26T15:38:12.935Z,57.64
2022-09-26T15:43:21.785Z,58.01
2022-09-26T15:48:32.579Z,59.02
2022-09-26T15:53:39.774Z,58.31
2022-09-26T15:58:53.352Z,57.90
2022-09-26T16:03:58.728Z,57.68
2022-09-26T16:09:05.969Z,57.78
2022-09-26T16:14:23.148Z,58.60
2022-09-26T16:19:43.180Z,58.97
2022-09-26T16:24:44.870Z,60.20
2022-09-26T16:29:51.815Z,61.68
2022-09-26T16:34:53.499Z,63.58
2022-09-26T16:39:59.336Z,65.00
2022-09-26T16:45:04.828Z,66.69
2022-09-26T16:50:33.562Z,67.96
2022-09-26T16:55:36.308Z,68.54
2022-09-26T17:00:58.853Z,68.99
2022-09-26T17:06:00.598Z,69.39
2022-09-26T17:11:04.243Z,69.95
2022-09-26T17:16:07.358Z,71.08
2022-09-26T17:21:09.061Z,71.91
2022-09-26T17:26:23.926Z,72.29
2022-09-26T17:31:26.945Z,72.75
2022-09-26T17:36:29.615Z,73.57
2022-09-26T17:41:34.356Z,74.57
2022-09-26T17:46:38.349Z,75.22
2022-09-26T17:51:40.646Z,75.66
2022-09-26T17:56:42.382Z,75.67
2022-09-26T18:01:46.447Z,75.40
2022-09-26T18:06:48.106Z,75.88
2022-09-26T18:11:59.612Z,76.55
2022-09-26T18:17:02.085Z,76.81
2022-09-26T18:22:03.963Z,77.51
2022-09-26T18:27:07.283Z,77.76
2022-09-26T18:32:25.792Z,78.47
2022-09-26T18:37:27.495Z,78.62
2022-09-26T18:42:29.134Z,78.94
2022-09-26T18:47:45.080Z,79.15
2022-09-26T18:52:46.771Z,78.77
2022-09-26T18:58:06.950Z,78.63
2022-09-26T19:03:08.717Z,78.33
2022-09-26T19:08:28.118Z,78.10
2022-09-26T19:13:31.498Z,77.77
2022-09-26T19:18:33.525Z,76.32
2022-09-26T19:23:36.660Z,74.79
2022-09-26T19:28:38.814Z,73.79
2022-09-26T19:33:45.419Z,72.88
2022-09-26T19:38:47.125Z,72.39
2022-09-26T19:43:48.818Z,72.42
2022-09-26T19:48:50.549Z,72.11
2022-09-26T19:53:52.301Z,71.95
2022-09-26T19:58:54.084Z,71.19
2022-09-26T20:03:55.830Z,70.63
2022-09-26T20:09:02.167Z,70.35
2022-09-26T20:14:22.704Z,71.20
2022-09-26T20:19:30.400Z,71.27
2022-09-26T20:24:33.429Z,71.20
2022-09-26T20:29:56.633Z,71.47
2022-09-26T20:35:00.393Z,71.51
2022-09-26T20:40:22.639Z,71.38
2022-09-26T20:45:31.822Z,71.38
2022-09-26T20:50:37.020Z,71.04
2022-09-26T20:55:43.239Z,71.22
2022-09-26T21:00:46.104Z,71.08
2022-09-26T21:05:47.848Z,71.26
2022-09-26T21:10:49.693Z,71.39
2022-09-26T21:15:52.813Z,71.61
2022-09-26T21:20:59.358Z,71.57
2022-09-26T21:26:25.050Z,71.45
2022-09-26T21:31:32.259Z,70.98
2022-09-26T21:36:39.319Z,70.95
2022-09-26T21:41:41.095Z,70.88
2022-09-26T21:46:42.716Z,71.01
2022-09-26T21:51:49.632Z,71.02
2022-09-26T21:56:55.710Z,71.11
2022-09-26T22:01:57.560Z,71.16
2022-09-26T22:06:59.340Z,71.08
2022-09-26T22:12:01.491Z,70.81
2022-09-26T22:17:03.124Z,70.89
2022-09-26T22:22:04.832Z,70.80
2022-09-26T22:27:06.508Z,70.52
2022-09-26T22:32:08.595Z,70.72
2022-09-26T22:37:10.225Z,70.41
2022-09-26T22:42:12.134Z,70.63
2022-09-26T22:47:13.835Z,70.69
2022-09-26T22:52:15.474Z,70.72
2022-09-26T22:57:17.482Z,70.95
2022-09-26T23:02:19.216Z,70.66
2022-09-26T23:07:21.129Z,70.40
2022-09-26T23:12:23.136Z,69.90
2022-09-26T23:17:25.080Z,69.75
2022-09-26T23:22:26.698Z,69.59
2022-09-26T23:27:28.523Z,69.39
2022-09-26T23:32:30.233Z,68.49
2022-09-26T23:37:32.498Z,68.34
2022-09-26T23:42:34.281Z,67.89
2022-09-26T23:47:35.949Z,68.74
2022-09-26T23:52:37.734Z,69.50
2022-09-26T23:57:39.512Z,70.17
